logo
Search for airport 
image banner adimage banner adimage banner ad
image banner ad

LBPL - Dolna Mitropolia

Located in Dolna Mitropoliya, Bulgaria

ICAO - LBPL, IATA - PVN

Data provided by Airmate  

General information

Coordinates: N43°27'6" E24°30'10"
Elevation is 330 feet MSL.
Magnetic variation is 6° East
Rated:
View ratings:
[VIEW]
View others Airports in Pleven

Operational data

Special qualification required
Current time UTC:
Current local time:
Weather
METAR: LBPL 251600Z 30014KT 9999 SCT060 BKN100 28/16 Q1005
View NOTAMs / SUP AIP / TFR affecting this airport [VIEW]
Communications frequencies: [VIEW]

Runways:

RWY identifierQFULength (ft)Width (ft)SurfaceLDA (ft)
10R103°7173190PEM
28L283°7173190PEM
10L103°7173230GRE
28R283°7173230GRE

Airport contact information

Address: Dolna Mitropoliya Bulgaria

Satellite view of LBPL